createdAt,value
2018-03-26T00:04:50.173Z,24.97
2018-03-26T00:09:44.478Z,25.87
2018-03-26T00:14:38.828Z,24.93
2018-03-26T00:19:33.299Z,25.53
2018-03-26T00:24:27.627Z,25.67
2018-03-26T00:29:21.934Z,25.73
2018-03-26T00:34:16.249Z,25.20
2018-03-26T00:39:10.575Z,25.77
2018-03-26T00:44:05.671Z,26.03
2018-03-26T00:48:59.999Z,24.93
2018-03-26T00:53:54.358Z,25.03
2018-03-26T00:58:48.669Z,24.37
2018-03-26T01:03:43.064Z,25.73
2018-03-26T01:08:37.370Z,24.90
2018-03-26T01:13:31.796Z,25.57
2018-03-26T01:18:26.883Z,26.13
2018-03-26T01:23:21.220Z,26.37
2018-03-26T01:28:15.923Z,27.67
2018-03-26T01:33:11.082Z,28.30
2018-03-26T01:38:05.283Z,29.77
2018-03-26T01:42:59.600Z,30.13
2018-03-26T01:47:54.015Z,30.63
2018-03-26T01:52:48.324Z,30.67
2018-03-26T01:57:42.632Z,33.23
2018-03-26T02:02:36.944Z,33.53
2018-03-26T02:07:32.034Z,37.00
2018-03-26T02:12:26.345Z,36.47
2018-03-26T02:17:20.643Z,40.00
2018-03-26T02:22:17.232Z,41.53
2018-03-26T02:27:12.311Z,43.00
2018-03-26T02:32:06.663Z,43.33
2018-03-26T02:37:01.038Z,44.13
2018-03-26T02:41:55.357Z,43.80
2018-03-26T02:46:50.435Z,44.30
2018-03-26T02:51:44.950Z,44.07
2018-03-26T02:56:39.274Z,46.17
2018-03-26T03:01:34.364Z,44.93
2018-03-26T03:06:28.678Z,46.33
2018-03-26T03:11:23.008Z,46.60
2018-03-26T03:16:18.080Z,44.67
2018-03-26T03:21:13.848Z,45.23
2018-03-26T03:26:08.908Z,41.97
2018-03-26T03:31:03.329Z,44.17
2018-03-26T03:35:57.651Z,41.90
2018-03-26T03:40:52.036Z,43.77
2018-03-26T03:45:46.348Z,41.43
2018-03-26T03:50:40.683Z,43.10
2018-03-26T03:55:35.766Z,42.43
2018-03-26T04:00:30.162Z,41.17
2018-03-26T04:05:24.543Z,37.83
2018-03-26T04:10:19.596Z,39.53
2018-03-26T04:15:13.905Z,37.53
2018-03-26T04:20:08.052Z,35.77
2018-03-26T04:25:02.483Z,34.90
2018-03-26T04:29:56.816Z,33.30
2018-03-26T04:34:51.328Z,33.63
2018-03-26T04:39:46.525Z,32.43
2018-03-26T04:44:40.840Z,32.43
2018-03-26T04:49:35.917Z,32.97
2018-03-26T04:54:30.226Z,33.20
2018-03-26T04:59:24.576Z,31.03
2018-03-26T05:04:19.654Z,32.90
2018-03-26T05:09:13.982Z,31.20
2018-03-26T05:14:08.410Z,32.80
2018-03-26T05:19:02.722Z,32.47
2018-03-26T05:23:57.078Z,32.37
2018-03-26T05:28:51.625Z,34.33
2018-03-26T05:33:46.718Z,33.90
2018-03-26T05:38:41.345Z,33.37
2018-03-26T05:43:36.442Z,32.33
2018-03-26T05:48:30.830Z,33.17
2018-03-26T05:53:25.130Z,36.43
2018-03-26T05:58:20.403Z,36.77
2018-03-26T06:03:14.796Z,35.97
2018-03-26T06:08:09.922Z,35.47
2018-03-26T06:13:04.251Z,36.37
2018-03-26T06:17:58.566Z,37.83
2018-03-26T06:22:52.687Z,37.07
2018-03-26T06:27:46.814Z,37.63
2018-03-26T06:32:41.911Z,36.33
2018-03-26T06:53:24.316Z,41.40
2018-03-26T06:58:18.750Z,38.60
2018-03-26T07:03:12.876Z,38.70
2018-03-26T07:08:07.609Z,40.63
2018-03-26T07:13:02.050Z,40.83
2018-03-26T07:17:56.445Z,40.40
2018-03-26T07:22:50.766Z,40.77
2018-03-26T07:27:45.853Z,43.50
2018-03-26T07:32:40.210Z,41.37
2018-03-26T07:37:35.278Z,43.47
2018-03-26T07:42:29.605Z,47.30
2018-03-26T07:47:24.024Z,48.93
2018-03-26T07:52:18.870Z,48.57
2018-03-26T07:57:13.159Z,47.43
2018-03-26T08:02:07.556Z,48.70
2018-03-26T08:07:01.680Z,51.87
2018-03-26T08:11:56.008Z,52.00
2018-03-26T08:16:50.346Z,53.63
2018-03-26T08:21:44.828Z,55.10
2018-03-26T08:26:39.172Z,54.27
2018-03-26T08:31:33.497Z,53.57
2018-03-26T08:36:27.883Z,53.13
2018-03-26T08:41:22.684Z,55.17
2018-03-26T08:46:17.119Z,52.57
2018-03-26T08:51:11.450Z,54.10
2018-03-26T08:56:05.542Z,51.77
2018-03-26T09:01:00.650Z,48.00
2018-03-26T09:05:54.995Z,46.43
2018-03-26T09:10:50.085Z,44.63
2018-03-26T09:15:44.577Z,39.97
2018-03-26T09:20:45.608Z,38.87
2018-03-26T09:25:39.991Z,31.27
2018-03-26T09:30:34.443Z,35.97
2018-03-26T09:35:29.048Z,23.20
2018-03-26T09:40:24.050Z,23.33
2018-03-26T09:45:18.805Z,20.37
2018-03-26T09:50:13.564Z,21.33
2018-03-26T09:55:07.995Z,18.67
2018-03-26T10:00:02.844Z,19.27
2018-03-26T10:04:58.037Z,15.97
2018-03-26T10:09:52.349Z,11.40
2018-03-26T10:14:46.699Z,10.23
2018-03-26T10:19:42.050Z,10.03
2018-03-26T10:24:36.520Z,11.97
2018-03-26T10:29:30.838Z,10.23
2018-03-26T10:34:25.124Z,8.17
2018-03-26T10:39:19.646Z,7.63
2018-03-26T10:44:13.743Z,8.60
2018-03-26T10:49:08.298Z,6.37
2018-03-26T10:54:03.556Z,4.20
2018-03-26T10:58:58.221Z,3.07
2018-03-26T11:03:52.705Z,4.03
2018-03-26T11:08:47.105Z,3.80
2018-03-26T11:13:41.436Z,3.90
2018-03-26T11:18:36.585Z,4.90
2018-03-26T11:23:30.908Z,4.70
2018-03-26T11:28:25.211Z,4.53
2018-03-26T11:33:19.538Z,5.30
2018-03-26T11:38:13.964Z,4.97
2018-03-26T11:43:08.508Z,5.90
2018-03-26T11:48:02.844Z,5.37
2018-03-26T11:52:57.162Z,5.00
2018-03-26T11:57:51.658Z,5.10
2018-03-26T12:02:45.552Z,3.83
2018-03-26T12:07:40.028Z,3.67
2018-03-26T12:12:34.366Z,3.47
2018-03-26T12:17:28.710Z,3.47
2018-03-26T12:22:23.098Z,3.77
2018-03-26T12:27:19.201Z,3.00
2018-03-26T12:32:13.597Z,3.03
2018-03-26T12:37:08.002Z,2.83
2018-03-26T12:42:02.399Z,3.57
2018-03-26T12:46:56.706Z,3.10
2018-03-26T12:52:07.988Z,3.20
2018-03-26T12:57:19.518Z,3.00
2018-03-26T13:02:37.282Z,3.03
2018-03-26T13:07:31.831Z,2.80
2018-03-26T13:12:26.150Z,3.20
2018-03-26T13:17:20.536Z,3.47
2018-03-26T13:22:14.688Z,3.20
2018-03-26T13:27:09.037Z,3.57
2018-03-26T13:32:03.480Z,3.57
2018-03-26T13:36:58.477Z,3.00
2018-03-26T13:41:53.185Z,2.90
2018-03-26T13:46:48.612Z,2.33
2018-03-26T13:51:42.770Z,2.40
2018-03-26T13:56:38.425Z,2.57
2018-03-26T14:01:32.799Z,1.80
2018-03-26T14:06:27.879Z,2.30
2018-03-26T14:11:39.370Z,2.57
2018-03-26T14:16:51.532Z,2.50
2018-03-26T14:21:46.624Z,2.77
2018-03-26T14:26:42.719Z,2.30
2018-03-26T14:31:38.226Z,2.30
2018-03-26T14:36:32.940Z,2.83
2018-03-26T14:41:27.625Z,2.60
2018-03-26T14:46:22.043Z,2.30
2018-03-26T14:51:16.437Z,2.60
2018-03-26T14:56:10.932Z,2.70
2018-03-26T15:01:05.329Z,2.63
2018-03-26T15:05:59.810Z,2.30
2018-03-26T15:10:56.062Z,2.77
2018-03-26T15:15:50.370Z,2.70
2018-03-26T15:20:44.686Z,2.70
2018-03-26T15:25:39.069Z,2.33
2018-03-26T15:30:33.386Z,2.50
2018-03-26T15:35:27.712Z,2.60
2018-03-26T15:40:22.049Z,2.33
2018-03-26T15:45:16.418Z,2.80
2018-03-26T15:50:10.752Z,2.30
2018-03-26T15:55:05.112Z,2.83
2018-03-26T16:00:00.138Z,2.90
2018-03-26T16:04:54.443Z,3.00
2018-03-26T16:09:49.667Z,2.70
2018-03-26T16:14:44.108Z,3.67
2018-03-26T16:19:38.490Z,3.23
2018-03-26T16:24:33.648Z,3.33
2018-03-26T16:29:28.163Z,3.53
2018-03-26T16:34:22.518Z,3.60
2018-03-26T16:39:17.929Z,3.37
2018-03-26T16:44:13.242Z,3.17
2018-03-26T16:49:07.703Z,3.63
2018-03-26T16:54:02.148Z,3.23
2018-03-26T16:58:58.033Z,3.90
2018-03-26T17:03:52.467Z,3.97
2018-03-26T17:08:46.843Z,4.10
2018-03-26T17:13:41.223Z,3.90
2018-03-26T17:18:36.453Z,4.53
2018-03-26T17:45:11.081Z,4.60
2018-03-26T17:50:05.625Z,5.03
2018-03-26T17:54:59.970Z,5.27
2018-03-26T17:59:54.779Z,5.03
2018-03-26T18:04:49.455Z,4.80
2018-03-26T18:09:44.918Z,4.70
2018-03-26T18:14:39.646Z,4.33
2018-03-26T18:19:33.988Z,4.70
2018-03-26T18:24:28.665Z,4.37
2018-03-26T18:29:22.836Z,5.27
2018-03-26T18:34:17.216Z,4.67
2018-03-26T18:39:12.505Z,4.63
2018-03-26T18:44:06.887Z,5.37
2018-03-26T18:49:01.314Z,5.60
2018-03-26T18:53:55.777Z,4.70
2018-03-26T18:58:50.345Z,5.50
2018-03-26T19:03:45.808Z,4.90
2018-03-26T19:08:40.343Z,4.93
2018-03-26T19:13:34.600Z,4.87
2018-03-26T19:18:29.779Z,5.00
2018-03-26T19:23:24.210Z,4.73
2018-03-26T19:28:19.456Z,4.73
2018-03-26T19:33:14.028Z,5.57
2018-03-26T19:38:08.556Z,4.90
2018-03-26T19:43:03.696Z,5.90
2018-03-26T19:47:58.132Z,4.93
2018-03-26T19:52:52.696Z,5.43
2018-03-26T19:57:48.224Z,5.37
2018-03-26T20:02:43.480Z,5.53
2018-03-26T20:07:37.883Z,5.70
2018-03-26T20:12:32.290Z,5.53
2018-03-26T20:17:26.634Z,5.70
2018-03-26T20:22:21.017Z,5.93
2018-03-26T20:27:15.393Z,6.77
2018-03-26T20:32:09.748Z,6.53
2018-03-26T20:37:04.886Z,6.17
2018-03-26T20:42:00.448Z,6.50
2018-03-26T20:46:56.437Z,6.03
2018-03-26T20:51:51.751Z,6.50
2018-03-26T20:56:46.426Z,6.50
2018-03-26T21:01:40.829Z,6.27
2018-03-26T21:06:35.227Z,6.47
2018-03-26T21:11:29.577Z,6.73
2018-03-26T21:16:24.769Z,6.50
2018-03-26T21:21:19.137Z,7.23
2018-03-26T21:26:13.540Z,7.43
2018-03-26T21:31:07.902Z,8.40
2018-03-26T21:36:02.270Z,7.63
2018-03-26T21:40:56.637Z,8.23
2018-03-26T21:45:51.220Z,7.80
2018-03-26T21:50:46.460Z,8.20
2018-03-26T21:55:40.872Z,8.20
2018-03-26T22:00:35.239Z,7.90
2018-03-26T22:05:30.495Z,8.33
2018-03-26T22:10:25.135Z,9.03
2018-03-26T22:15:24.321Z,8.97
2018-03-26T22:20:21.427Z,8.63
2018-03-26T22:25:15.885Z,9.60
2018-03-26T22:30:10.305Z,9.60
2018-03-26T22:35:04.728Z,10.20
2018-03-26T22:39:59.244Z,10.33
2018-03-26T22:44:53.602Z,10.87
2018-03-26T22:49:47.962Z,11.13
2018-03-26T22:54:42.310Z,9.97
2018-03-26T22:59:37.463Z,11.20
2018-03-26T23:04:31.848Z,11.63
2018-03-26T23:09:26.204Z,12.20
2018-03-26T23:14:20.596Z,13.03
2018-03-26T23:19:14.964Z,14.03
2018-03-26T23:24:09.542Z,13.40
2018-03-26T23:29:04.655Z,14.20
2018-03-26T23:33:59.792Z,14.43
2018-03-26T23:38:54.195Z,15.40
2018-03-26T23:43:48.618Z,14.93
2018-03-26T23:48:43.002Z,17.57
2018-03-26T23:53:37.356Z,17.50
2018-03-26T23:58:31.707Z,17.53
